sensor_id;sensor_type;location;lat;lon;timestamp;pressure;altitude;pressure_sealevel;temperature;humidity
50484;BME280;36409;52.168;20.878;2023-04-29T00:02:10;100491.93;;;5.16;53.42
50484;BME280;36409;52.168;20.878;2023-04-29T00:04:42;100505.71;;;5.14;52.76
50484;BME280;36409;52.168;20.878;2023-04-29T00:07:15;100507.41;;;5.12;53.09
50484;BME280;36409;52.168;20.878;2023-04-29T00:09:48;100500.50;;;5.09;53.56
50484;BME280;36409;52.168;20.878;2023-04-29T00:12:21;100502.20;;;5.08;53.64
50484;BME280;36409;52.168;20.878;2023-04-29T00:14:55;100497.02;;;5.05;53.76
50484;BME280;36409;52.168;20.878;2023-04-29T00:17:30;100494.39;;;5.04;53.24
50484;BME280;36409;52.168;20.878;2023-04-29T00:20:07;100496.09;;;5.02;54.06
50484;BME280;36409;52.168;20.878;2023-04-29T00:22:41;100488.32;;;5.00;54.00
50484;BME280;36409;52.168;20.878;2023-04-29T00:25:15;100495.23;;;5.00;53.45
50484;BME280;36409;52.168;20.878;2023-04-29T00:27:47;100492.64;;;5.00;53.83
50484;BME280;36409;52.168;20.878;2023-04-29T00:30:20;100487.43;;;4.98;54.17
50484;BME280;36409;52.168;20.878;2023-04-29T00:32:53;100482.25;;;4.97;54.28
50484;BME280;36409;52.168;20.878;2023-04-29T00:35:26;100482.25;;;4.95;54.42
50484;BME280;36409;52.168;20.878;2023-04-29T00:37:58;100486.53;;;4.94;54.50
50484;BME280;36409;52.168;20.878;2023-04-29T00:40:31;100491.71;;;4.96;53.95
50484;BME280;36409;52.168;20.878;2023-04-29T00:43:05;100484.83;;;4.95;53.71
50484;BME280;36409;52.168;20.878;2023-04-29T00:45:38;100476.19;;;4.94;53.83
50484;BME280;36409;52.168;20.878;2023-04-29T00:48:11;100482.25;;;4.95;54.72
50484;BME280;36409;52.168;20.878;2023-04-29T00:50:44;100475.34;;;4.94;54.15
50484;BME280;36409;52.168;20.878;2023-04-29T00:53:17;100472.75;;;4.94;53.94
50484;BME280;36409;52.168;20.878;2023-04-29T00:55:58;100467.58;;;4.94;54.64
50484;BME280;36409;52.168;20.878;2023-04-29T00:58:32;100468.42;;;4.93;54.57
50484;BME280;36409;52.168;20.878;2023-04-29T01:01:06;100469.27;;;4.92;54.36
50484;BME280;36409;52.168;20.878;2023-04-29T01:03:40;100471.86;;;4.93;54.58
50484;BME280;36409;52.168;20.878;2023-04-29T01:06:25;100471.01;;;4.93;55.10
50484;BME280;36409;52.168;20.878;2023-04-29T01:09:15;100473.60;;;4.94;55.01
50484;BME280;36409;52.168;20.878;2023-04-29T01:12:03;100473.60;;;4.94;54.89
50484;BME280;36409;52.168;20.878;2023-04-29T01:14:39;100471.91;;;4.97;55.05
50484;BME280;36409;52.168;20.878;2023-04-29T01:17:18;100473.64;;;4.98;54.39
50484;BME280;36409;52.168;20.878;2023-04-29T01:19:56;100471.91;;;4.98;55.18
50484;BME280;36409;52.168;20.878;2023-04-29T01:22:30;100472.80;;;5.00;54.88
50484;BME280;36409;52.168;20.878;2023-04-29T01:25:06;100475.39;;;5.02;55.15
50484;BME280;36409;52.168;20.878;2023-04-29T01:28:07;100466.78;;;5.03;54.94
50484;BME280;36409;52.168;20.878;2023-04-29T01:30:57;100473.69;;;5.04;54.52
50484;BME280;36409;52.168;20.878;2023-04-29T01:33:39;100478.02;;;5.05;55.37
50484;BME280;36409;52.168;20.878;2023-04-29T01:36:25;100475.42;;;5.05;55.36
50484;BME280;36409;52.168;20.878;2023-04-29T01:39:11;100479.75;;;5.06;55.51
50484;BME280;36409;52.168;20.878;2023-04-29T01:41:55;100472.88;;;5.06;55.15
50484;BME280;36409;52.168;20.878;2023-04-29T01:44:34;100475.47;;;5.06;55.48
50484;BME280;36409;52.168;20.878;2023-04-29T01:47:12;100471.14;;;5.05;55.20
50484;BME280;36409;52.168;20.878;2023-04-29T01:49:53;100472.88;;;5.06;55.81
50484;BME280;36409;52.168;20.878;2023-04-29T01:52:27;100465.97;;;5.05;55.48
50484;BME280;36409;52.168;20.878;2023-04-29T01:55:01;100468.55;;;5.07;55.39
50484;BME280;36409;52.168;20.878;2023-04-29T01:57:44;100465.97;;;5.05;55.67
50484;BME280;36409;52.168;20.878;2023-04-29T02:00:27;100470.25;;;5.05;55.33
50484;BME280;36409;52.168;20.878;2023-04-29T02:03:01;100467.67;;;5.05;55.44
50484;BME280;36409;52.168;20.878;2023-04-29T02:05:40;100471.14;;;5.05;55.70
50484;BME280;36409;52.168;20.878;2023-04-29T02:08:13;100463.38;;;5.05;55.37
50484;BME280;36409;52.168;20.878;2023-04-29T02:10:54;100463.38;;;5.07;55.19
50484;BME280;36409;52.168;20.878;2023-04-29T02:13:39;100458.20;;;5.05;56.08
50484;BME280;36409;52.168;20.878;2023-04-29T02:16:14;100453.87;;;5.04;55.63
50484;BME280;36409;52.168;20.878;2023-04-29T02:18:56;100459.90;;;5.03;55.91
50484;BME280;36409;52.168;20.878;2023-04-29T02:21:31;100464.22;;;5.04;55.49
50484;BME280;36409;52.168;20.878;2023-04-29T02:24:06;100456.47;;;5.06;56.20
50484;BME280;36409;52.168;20.878;2023-04-29T02:26:42;100459.94;;;5.06;55.96
50484;BME280;36409;52.168;20.878;2023-04-29T02:29:17;100461.64;;;5.07;56.07
50484;BME280;36409;52.168;20.878;2023-04-29T02:31:50;100452.18;;;5.08;55.60
50484;BME280;36409;52.168;20.878;2023-04-29T02:34:23;100458.20;;;5.08;56.32
50484;BME280;36409;52.168;20.878;2023-04-29T02:36:59;100448.74;;;5.09;55.86
50484;BME280;36409;52.168;20.878;2023-04-29T02:39:34;100452.18;;;5.09;55.71
50484;BME280;36409;52.168;20.878;2023-04-29T02:42:07;100448.74;;;5.09;56.26
50484;BME280;36409;52.168;20.878;2023-04-29T02:44:39;100447.86;;;5.08;56.19
50484;BME280;36409;52.168;20.878;2023-04-29T02:47:14;100457.36;;;5.09;56.00
50484;BME280;36409;52.168;20.878;2023-04-29T02:49:48;100446.16;;;5.09;56.02
50484;BME280;36409;52.168;20.878;2023-04-29T02:52:21;100450.45;;;5.08;55.65
50484;BME280;36409;52.168;20.878;2023-04-29T02:54:55;100447.01;;;5.09;56.25
50484;BME280;36409;52.168;20.878;2023-04-29T02:57:29;100446.16;;;5.10;56.10
50484;BME280;36409;52.168;20.878;2023-04-29T03:00:04;100435.80;;;5.09;56.33
50484;BME280;36409;52.168;20.878;2023-04-29T03:02:40;100434.07;;;5.09;56.18
50484;BME280;36409;52.168;20.878;2023-04-29T03:05:17;100440.98;;;5.09;56.36
50484;BME280;36409;52.168;20.878;2023-04-29T03:07:49;100434.92;;;5.08;55.84
50484;BME280;36409;52.168;20.878;2023-04-29T03:10:22;100439.24;;;5.08;56.45
50484;BME280;36409;52.168;20.878;2023-04-29T03:12:56;100435.77;;;5.07;56.58
50484;BME280;36409;52.168;20.878;2023-04-29T03:15:29;100440.95;;;5.07;56.19
50484;BME280;36409;52.168;20.878;2023-04-29T03:18:01;100430.59;;;5.06;56.31
50484;BME280;36409;52.168;20.878;2023-04-29T03:20:36;100435.77;;;5.06;56.59
50484;BME280;36409;52.168;20.878;2023-04-29T03:23:09;100438.35;;;5.06;56.54
50484;BME280;36409;52.168;20.878;2023-04-29T03:25:43;100436.66;;;5.06;56.88
50484;BME280;36409;52.168;20.878;2023-04-29T03:28:16;100432.33;;;5.07;56.85
50484;BME280;36409;52.168;20.878;2023-04-29T03:30:49;100440.95;;;5.07;56.82
50484;BME280;36409;52.168;20.878;2023-04-29T03:33:22;100434.92;;;5.08;56.22
50484;BME280;36409;52.168;20.878;2023-04-29T03:35:56;100428.89;;;5.08;56.08
50484;BME280;36409;52.168;20.878;2023-04-29T03:38:54;100435.80;;;5.09;56.66
50484;BME280;36409;52.168;20.878;2023-04-29T03:41:27;100434.95;;;5.10;57.02
50484;BME280;36409;52.168;20.878;2023-04-29T03:44:00;100438.43;;;5.12;56.58
50484;BME280;36409;52.168;20.878;2023-04-29T03:46:34;100431.52;;;5.13;56.91
50484;BME280;36409;52.168;20.878;2023-04-29T03:49:08;100440.17;;;5.15;56.50
50484;BME280;36409;52.168;20.878;2023-04-29T03:51:43;100438.47;;;5.17;57.09
50484;BME280;36409;52.168;20.878;2023-04-29T03:54:19;100435.89;;;5.20;56.91
50484;BME280;36409;52.168;20.878;2023-04-29T03:56:52;100436.77;;;5.22;56.86
50484;BME280;36409;52.168;20.878;2023-04-29T03:59:26;100435.95;;;5.26;56.90
50484;BME280;36409;52.168;20.878;2023-04-29T04:01:59;100443.76;;;5.29;56.40
50484;BME280;36409;52.168;20.878;2023-04-29T04:04:34;100443.76;;;5.31;56.86
50484;BME280;36409;52.168;20.878;2023-04-29T04:07:08;100438.62;;;5.35;57.10
50484;BME280;36409;52.168;20.878;2023-04-29T04:10:01;100437.80;;;5.43;56.55
50484;BME280;36409;52.168;20.878;2023-04-29T04:12:34;100430.10;;;5.49;56.89
50484;BME280;36409;52.168;20.878;2023-04-29T04:15:09;100433.64;;;5.60;56.68
50484;BME280;36409;52.168;20.878;2023-04-29T04:17:45;100422.55;;;5.78;56.75
50484;BME280;36409;52.168;20.878;2023-04-29T04:20:20;100420.13;;;6.05;56.26
50484;BME280;36409;52.168;20.878;2023-04-29T04:22:53;100416.00;;;6.50;56.57
50484;BME280;36409;52.168;20.878;2023-04-29T04:25:28;100412.66;;;6.98;56.65
50484;BME280;36409;52.168;20.878;2023-04-29T04:28:12;100420.45;;;7.53;56.18
50484;BME280;36409;52.168;20.878;2023-04-29T04:31:01;100408.20;;;8.07;55.81
50484;BME280;36409;52.168;20.878;2023-04-29T04:33:35;100407.12;;;8.63;55.29
50484;BME280;36409;52.168;20.878;2023-04-29T04:36:09;100404.13;;;9.22;55.52
50484;BME280;36409;52.168;20.878;2023-04-29T04:38:44;100397.40;;;9.92;54.73
50484;BME280;36409;52.168;20.878;2023-04-29T04:41:16;100407.23;;;10.46;53.88
50484;BME280;36409;52.168;20.878;2023-04-29T04:43:51;100401.07;;;11.09;53.56
50484;BME280;36409;52.168;20.878;2023-04-29T04:46:49;100392.27;;;12.15;52.99
50484;BME280;36409;52.168;20.878;2023-04-29T04:49:34;100399.94;;;13.03;52.30
50484;BME280;36409;52.168;20.878;2023-04-29T04:52:09;100396.69;;;13.64;51.72
50484;BME280;36409;52.168;20.878;2023-04-29T04:54:45;100390.79;;;13.56;51.90
50484;BME280;36409;52.168;20.878;2023-04-29T04:57:21;100390.64;;;13.62;50.70
50484;BME280;36409;52.168;20.878;2023-04-29T04:59:57;100390.44;;;14.01;50.96
50484;BME280;36409;52.168;20.878;2023-04-29T05:02:30;100395.70;;;14.31;50.68
50484;BME280;36409;52.168;20.878;2023-04-29T05:05:04;100393.91;;;14.63;49.40
50484;BME280;36409;52.168;20.878;2023-04-29T05:07:39;100390.70;;;14.24;49.43
50484;BME280;36409;52.168;20.878;2023-04-29T05:10:12;100397.13;;;14.43;49.47
50484;BME280;36409;52.168;20.878;2023-04-29T05:12:51;100395.68;;;14.33;49.44
50484;BME280;36409;52.168;20.878;2023-04-29T05:15:24;100406.58;;;13.87;48.59
50484;BME280;36409;52.168;20.878;2023-04-29T05:17:59;100398.41;;;13.65;48.46
50484;BME280;36409;52.168;20.878;2023-04-29T05:20:31;100394.38;;;13.52;48.91
50484;BME280;36409;52.168;20.878;2023-04-29T05:23:05;100399.04;;;13.40;48.53
50484;BME280;36409;52.168;20.878;2023-04-29T05:25:45;100393.72;;;13.43;47.77
50484;BME280;36409;52.168;20.878;2023-04-29T05:28:19;100386.19;;;13.64;47.65
50484;BME280;36409;52.168;20.878;2023-04-29T05:30:56;100382.83;;;13.92;47.42
50484;BME280;36409;52.168;20.878;2023-04-29T05:33:29;100388.42;;;14.11;47.77
50484;BME280;36409;52.168;20.878;2023-04-29T05:36:04;100385.39;;;14.25;48.02
50484;BME280;36409;52.168;20.878;2023-04-29T05:38:37;100385.35;;;14.57;46.76
50484;BME280;36409;52.168;20.878;2023-04-29T05:41:11;100380.09;;;14.57;46.74
50484;BME280;36409;52.168;20.878;2023-04-29T05:43:50;100387.58;;;14.41;47.02
50484;BME280;36409;52.168;20.878;2023-04-29T05:46:23;100377.10;;;14.39;46.84
50484;BME280;36409;52.168;20.878;2023-04-29T05:48:57;100383.12;;;14.43;46.62
50484;BME280;36409;52.168;20.878;2023-04-29T05:51:29;100384.16;;;14.07;46.95
50484;BME280;36409;52.168;20.878;2023-04-29T05:54:02;100383.99;;;13.82;46.07
50484;BME280;36409;52.168;20.878;2023-04-29T05:56:36;100385.09;;;13.73;46.20
50484;BME280;36409;52.168;20.878;2023-04-29T05:59:09;100371.33;;;13.96;45.91
50484;BME280;36409;52.168;20.878;2023-04-29T06:01:43;100385.58;;;14.49;46.41
50484;BME280;36409;52.168;20.878;2023-04-29T06:04:18;100383.27;;;14.96;45.18
50484;BME280;36409;52.168;20.878;2023-04-29T06:07:07;100380.64;;;14.96;45.82
50484;BME280;36409;52.168;20.878;2023-04-29T06:10:04;100383.81;;;14.79;46.03
50484;BME280;36409;52.168;20.878;2023-04-29T06:12:38;100378.46;;;14.52;45.95
50484;BME280;36409;52.168;20.878;2023-04-29T06:15:11;100382.85;;;14.22;45.04
50484;BME280;36409;52.168;20.878;2023-04-29T06:17:48;100384.71;;;13.87;45.83
50484;BME280;36409;52.168;20.878;2023-04-29T06:20:20;100384.14;;;13.75;46.16
50484;BME280;36409;52.168;20.878;2023-04-29T06:22:53;100380.30;;;13.56;46.11
50484;BME280;36409;52.168;20.878;2023-04-29T06:25:27;100375.35;;;13.45;46.51
50484;BME280;36409;52.168;20.878;2023-04-29T06:28:04;100374.95;;;13.24;46.07
50484;BME280;36409;52.168;20.878;2023-04-29T06:30:39;100377.67;;;13.21;46.43
50484;BME280;36409;52.168;20.878;2023-04-29T06:33:12;100381.06;;;13.25;45.92
50484;BME280;36409;52.168;20.878;2023-04-29T06:35:59;100378.46;;;13.23;45.94
50484;BME280;36409;52.168;20.878;2023-04-29T06:39:01;100377.98;;;13.45;45.93
50484;BME280;36409;52.168;20.878;2023-04-29T06:41:45;100366.34;;;13.87;45.46
50484;BME280;36409;52.168;20.878;2023-04-29T06:44:36;100365.96;;;14.89;44.50
50484;BME280;36409;52.168;20.878;2023-04-29T06:47:28;100365.62;;;16.27;43.65
50484;BME280;36409;52.168;20.878;2023-04-29T06:50:10;100369.64;;;16.81;43.82
50484;BME280;36409;52.168;20.878;2023-04-29T06:52:44;100371.73;;;16.73;43.23
50484;BME280;36409;52.168;20.878;2023-04-29T06:55:17;100374.70;;;16.42;42.82
50484;BME280;36409;52.168;20.878;2023-04-29T06:57:51;100373.13;;;16.14;43.62
50484;BME280;36409;52.168;20.878;2023-04-29T07:00:23;100373.94;;;16.62;42.94
50484;BME280;36409;52.168;20.878;2023-04-29T07:02:57;100364.47;;;17.23;42.17
50484;BME280;36409;52.168;20.878;2023-04-29T07:05:32;100366.13;;;17.05;42.01
50484;BME280;36409;52.168;20.878;2023-04-29T07:08:05;100359.78;;;16.87;42.59
50484;BME280;36409;52.168;20.878;2023-04-29T07:10:38;100361.50;;;16.88;42.19
50484;BME280;36409;52.168;20.878;2023-04-29T07:13:11;100356.42;;;16.83;42.42
50484;BME280;36409;52.168;20.878;2023-04-29T07:15:45;100352.48;;;16.71;42.41
50484;BME280;36409;52.168;20.878;2023-04-29T07:18:17;100356.15;;;16.67;42.87
50484;BME280;36409;52.168;20.878;2023-04-29T07:20:51;100351.21;;;16.59;42.71
50484;BME280;36409;52.168;20.878;2023-04-29T07:23:26;100355.49;;;16.62;41.58
50484;BME280;36409;52.168;20.878;2023-04-29T07:25:58;100350.34;;;16.81;41.74
50484;BME280;36409;52.168;20.878;2023-04-29T07:28:30;100349.73;;;16.96;41.59
50484;BME280;36409;52.168;20.878;2023-04-29T07:31:04;100352.86;;;17.06;41.78
50484;BME280;36409;52.168;20.878;2023-04-29T07:33:38;100355.61;;;17.03;41.90
50484;BME280;36409;52.168;20.878;2023-04-29T07:36:12;100351.53;;;16.96;41.40
50484;BME280;36409;52.168;20.878;2023-04-29T07:38:45;100357.45;;;17.01;41.36
50484;BME280;36409;52.168;20.878;2023-04-29T07:41:22;100350.96;;;16.88;41.88
50484;BME280;36409;52.168;20.878;2023-04-29T07:43:54;100343.78;;;16.69;42.02
50484;BME280;36409;52.168;20.878;2023-04-29T07:46:30;100348.25;;;16.67;42.10
50484;BME280;36409;52.168;20.878;2023-04-29T07:49:03;100346.90;;;16.57;41.61
50484;BME280;36409;52.168;20.878;2023-04-29T07:51:37;100349.09;;;16.90;41.65
50484;BME280;36409;52.168;20.878;2023-04-29T07:54:14;100351.02;;;17.70;40.99
50484;BME280;36409;52.168;20.878;2023-04-29T07:56:47;100346.33;;;18.36;40.50
50484;BME280;36409;52.168;20.878;2023-04-29T07:59:19;100349.09;;;18.14;41.14
50484;BME280;36409;52.168;20.878;2023-04-29T08:01:52;100347.03;;;17.81;41.14
50484;BME280;36409;52.168;20.878;2023-04-29T08:04:24;100351.70;;;17.55;40.42
50484;BME280;36409;52.168;20.878;2023-04-29T08:07:07;100353.67;;;17.29;40.77
50484;BME280;36409;52.168;20.878;2023-04-29T08:09:39;100351.02;;;17.08;41.08
50484;BME280;36409;52.168;20.878;2023-04-29T08:12:13;100351.98;;;17.06;41.41
50484;BME280;36409;52.168;20.878;2023-04-29T08:14:47;100358.13;;;17.06;41.61
50484;BME280;36409;52.168;20.878;2023-04-29T08:17:20;100355.50;;;17.06;41.45
50484;BME280;36409;52.168;20.878;2023-04-29T08:19:53;100358.98;;;17.07;41.26
50484;BME280;36409;52.168;20.878;2023-04-29T08:22:25;100348.70;;;17.01;41.42
50484;BME280;36409;52.168;20.878;2023-04-29T08:24:58;100350.34;;;17.03;41.42
50484;BME280;36409;52.168;20.878;2023-04-29T08:27:30;100350.22;;;17.06;41.02
50484;BME280;36409;52.168;20.878;2023-04-29T08:30:04;100350.11;;;17.09;41.17
50484;BME280;36409;52.168;20.878;2023-04-29T08:32:35;100352.55;;;17.14;41.32
50484;BME280;36409;52.168;20.878;2023-04-29T08:35:10;100346.01;;;17.23;41.04
50484;BME280;36409;52.168;20.878;2023-04-29T08:37:42;100343.64;;;17.37;40.99
50484;BME280;36409;52.168;20.878;2023-04-29T08:40:15;100341.20;;;17.53;41.43
50484;BME280;36409;52.168;20.878;2023-04-29T08:42:49;100327.80;;;17.79;40.97
50484;BME280;36409;52.168;20.878;2023-04-29T08:45:23;100340.55;;;18.09;41.18
50484;BME280;36409;52.168;20.878;2023-04-29T08:47:57;100329.02;;;18.48;40.71
50484;BME280;36409;52.168;20.878;2023-04-29T08:50:32;100331.59;;;18.86;40.38
50484;BME280;36409;52.168;20.878;2023-04-29T08:53:10;100328.37;;;19.16;39.91
50484;BME280;36409;52.168;20.878;2023-04-29T08:55:43;100323.33;;;19.29;39.97
50484;BME280;36409;52.168;20.878;2023-04-29T08:58:17;100333.44;;;19.38;39.82
50484;BME280;36409;52.168;20.878;2023-04-29T09:00:49;100323.88;;;19.36;39.06
50484;BME280;36409;52.168;20.878;2023-04-29T09:03:28;100334.66;;;19.31;39.39
50484;BME280;36409;52.168;20.878;2023-04-29T09:06:03;100330.62;;;19.24;38.94
50484;BME280;36409;52.168;20.878;2023-04-29T09:08:37;100332.50;;;19.39;39.02
50484;BME280;36409;52.168;20.878;2023-04-29T09:11:11;100332.47;;;19.57;38.98
50484;BME280;36409;52.168;20.878;2023-04-29T09:13:43;100322.03;;;19.54;38.73
50484;BME280;36409;52.168;20.878;2023-04-29T09:16:18;100333.34;;;19.57;39.26
50484;BME280;36409;52.168;20.878;2023-04-29T09:18:52;100321.19;;;19.53;39.17
50484;BME280;36409;52.168;20.878;2023-04-29T09:21:28;100320.66;;;19.47;38.77
50484;BME280;36409;52.168;20.878;2023-04-29T09:24:02;100320.20;;;19.38;38.77
50484;BME280;36409;52.168;20.878;2023-04-29T09:26:41;100328.22;;;19.19;38.68
50484;BME280;36409;52.168;20.878;2023-04-29T09:29:14;100322.95;;;19.02;38.45
50484;BME280;36409;52.168;20.878;2023-04-29T09:31:49;100322.09;;;18.82;38.47
50484;BME280;36409;52.168;20.878;2023-04-29T09:34:33;100317.59;;;18.84;38.71
50484;BME280;36409;52.168;20.878;2023-04-29T09:37:24;100325.20;;;18.73;38.37
50484;BME280;36409;52.168;20.878;2023-04-29T09:39:57;100318.42;;;18.67;38.38
50484;BME280;36409;52.168;20.878;2023-04-29T09:42:30;100316.01;;;18.62;38.54
50484;BME280;36409;52.168;20.878;2023-04-29T09:45:12;100309.14;;;18.58;38.38
50484;BME280;36409;52.168;20.878;2023-04-29T09:48:07;100315.08;;;18.63;38.69
50484;BME280;36409;52.168;20.878;2023-04-29T09:50:41;100309.05;;;18.79;38.58
50484;BME280;36409;52.168;20.878;2023-04-29T09:53:28;100300.13;;;18.99;38.37
50484;BME280;36409;52.168;20.878;2023-04-29T09:56:02;100301.63;;;19.22;38.53
50484;BME280;36409;52.168;20.878;2023-04-29T09:58:36;100296.19;;;19.59;38.63
50484;BME280;36409;52.168;20.878;2023-04-29T10:01:11;100301.52;;;20.09;38.18
50484;BME280;36409;52.168;20.878;2023-04-29T10:03:48;100296.38;;;20.37;37.97
50484;BME280;36409;52.168;20.878;2023-04-29T10:06:21;100290.45;;;20.64;37.98
50484;BME280;36409;52.168;20.878;2023-04-29T10:08:55;100287.92;;;20.93;37.60
50484;BME280;36409;52.168;20.878;2023-04-29T10:11:28;100285.05;;;20.82;37.11
50484;BME280;36409;52.168;20.878;2023-04-29T10:14:02;100274.83;;;20.90;37.37
50484;BME280;36409;52.168;20.878;2023-04-29T10:16:42;100274.42;;;21.12;37.25
50484;BME280;36409;52.168;20.878;2023-04-29T10:19:42;100276.52;;;21.22;36.92
50484;BME280;36409;52.168;20.878;2023-04-29T10:22:25;100264.77;;;21.40;37.46
50484;BME280;36409;52.168;20.878;2023-04-29T10:25:01;100271.63;;;21.73;36.98
50484;BME280;36409;52.168;20.878;2023-04-29T10:27:34;100275.80;;;21.63;37.16
50484;BME280;36409;52.168;20.878;2023-04-29T10:30:14;100267.14;;;21.45;36.75
50484;BME280;36409;52.168;20.878;2023-04-29T10:32:49;100268.91;;;21.01;36.67
50484;BME280;36409;52.168;20.878;2023-04-29T10:35:23;100260.34;;;20.96;36.87
50484;BME280;36409;52.168;20.878;2023-04-29T10:37:59;100263.14;;;21.09;37.21
50484;BME280;36409;52.168;20.878;2023-04-29T10:40:39;100260.59;;;21.22;36.56
50484;BME280;36409;52.168;20.878;2023-04-29T10:43:14;100251.13;;;21.32;36.41
50484;BME280;36409;52.168;20.878;2023-04-29T10:45:48;100260.03;;;21.31;36.72
50484;BME280;36409;52.168;20.878;2023-04-29T10:48:21;100253.31;;;21.40;36.67
50484;BME280;36409;52.168;20.878;2023-04-29T10:51:02;100250.00;;;21.36;36.36
50484;BME280;36409;52.168;20.878;2023-04-29T10:53:36;100252.17;;;21.29;35.90
50484;BME280;36409;52.168;20.878;2023-04-29T10:56:46;100253.09;;;21.14;36.41
50484;BME280;36409;52.168;20.878;2023-04-29T11:02:14;100257.25;;;21.04;36.47
50484;BME280;36409;52.168;20.878;2023-04-29T11:05:09;100250.47;;;20.83;36.30
50484;BME280;36409;52.168;20.878;2023-04-29T11:07:41;100242.76;;;21.09;36.77
50484;BME280;36409;52.168;20.878;2023-04-29T11:10:14;100239.56;;;21.33;36.53
50484;BME280;36409;52.168;20.878;2023-04-29T11:12:46;100241.97;;;21.67;36.97
50484;BME280;36409;52.168;20.878;2023-04-29T11:15:22;100238.51;;;21.79;36.21
50484;BME280;36409;52.168;20.878;2023-04-29T11:17:58;100238.25;;;21.84;35.73
50484;BME280;36409;52.168;20.878;2023-04-29T11:23:42;100238.84;;;21.60;36.44
50484;BME280;36409;52.168;20.878;2023-04-29T11:26:16;100236.05;;;21.47;35.94
50484;BME280;36409;52.168;20.878;2023-04-29T11:28:51;100229.69;;;21.21;36.08
50484;BME280;36409;52.168;20.878;2023-04-29T11:31:31;100227.96;;;20.91;36.27
50484;BME280;36409;52.168;20.878;2023-04-29T11:34:05;100232.86;;;20.66;35.88
50484;BME280;36409;52.168;20.878;2023-04-29T11:36:38;100228.20;;;20.56;36.27
50484;BME280;36409;52.168;20.878;2023-04-29T11:39:10;100229.86;;;20.42;36.12
50484;BME280;36409;52.168;20.878;2023-04-29T11:41:43;100229.27;;;20.21;36.22
50484;BME280;36409;52.168;20.878;2023-04-29T11:44:15;100215.72;;;20.11;35.66
50484;BME280;36409;52.168;20.878;2023-04-29T11:46:53;100217.95;;;20.03;35.89
50484;BME280;36409;52.168;20.878;2023-04-29T11:49:33;100223.83;;;20.08;36.43
50484;BME280;36409;52.168;20.878;2023-04-29T11:52:08;100220.77;;;20.00;35.98
50484;BME280;36409;52.168;20.878;2023-04-29T11:54:42;100212.69;;;19.85;36.26
50484;BME280;36409;52.168;20.878;2023-04-29T11:57:14;100208.17;;;19.71;36.19
50484;BME280;36409;52.168;20.878;2023-04-29T11:59:48;100212.94;;;19.65;36.52
50484;BME280;36409;52.168;20.878;2023-04-29T12:02:23;100212.42;;;19.58;36.68
50484;BME280;36409;52.168;20.878;2023-04-29T12:05:04;100206.71;;;19.66;36.71
50484;BME280;36409;52.168;20.878;2023-04-29T12:07:38;100212.10;;;19.64;36.58
50484;BME280;36409;52.168;20.878;2023-04-29T12:10:12;100209.19;;;19.53;36.47
50484;BME280;36409;52.168;20.878;2023-04-29T12:12:44;100212.05;;;19.48;36.38
50484;BME280;36409;52.168;20.878;2023-04-29T12:15:18;100204.80;;;19.36;36.35
50484;BME280;36409;52.168;20.878;2023-04-29T12:17:50;100197.17;;;19.29;36.18
50484;BME280;36409;52.168;20.878;2023-04-29T12:20:23;100204.73;;;19.53;36.42
50484;BME280;36409;52.168;20.878;2023-04-29T12:22:56;100192.92;;;19.93;36.59
50484;BME280;36409;52.168;20.878;2023-04-29T12:25:39;100195.63;;;20.07;36.56
50484;BME280;36409;52.168;20.878;2023-04-29T12:28:14;100187.15;;;20.16;36.65
50484;BME280;36409;52.168;20.878;2023-04-29T12:30:49;100184.40;;;20.34;36.81
50484;BME280;36409;52.168;20.878;2023-04-29T12:33:22;100187.28;;;20.45;36.84
50484;BME280;36409;52.168;20.878;2023-04-29T12:35:57;100182.55;;;20.50;36.57
50484;BME280;36409;52.168;20.878;2023-04-29T12:38:31;100185.02;;;20.53;36.43
50484;BME280;36409;52.168;20.878;2023-04-29T12:41:04;100185.44;;;20.31;36.28
50484;BME280;36409;52.168;20.878;2023-04-29T12:43:38;100180.61;;;20.38;36.35
50484;BME280;36409;52.168;20.878;2023-04-29T12:46:16;100175.31;;;20.38;36.35
50484;BME280;36409;52.168;20.878;2023-04-29T12:48:53;100180.00;;;20.49;36.28
50484;BME280;36409;52.168;20.878;2023-04-29T12:51:25;100179.16;;;20.48;36.09
50484;BME280;36409;52.168;20.878;2023-04-29T12:53:59;100165.84;;;20.64;36.15
50484;BME280;36409;52.168;20.878;2023-04-29T12:56:33;100172.16;;;20.62;35.94
50484;BME280;36409;52.168;20.878;2023-04-29T12:59:07;100175.23;;;20.40;36.19
50484;BME280;36409;52.168;20.878;2023-04-29T13:01:40;100175.55;;;20.19;36.01
50484;BME280;36409;52.168;20.878;2023-04-29T13:04:13;100180.09;;;20.01;36.08
50484;BME280;36409;52.168;20.878;2023-04-29T13:06:46;100171.64;;;19.94;36.14
50484;BME280;36409;52.168;20.878;2023-04-29T13:09:19;100174.39;;;19.93;36.16
50484;BME280;36409;52.168;20.878;2023-04-29T13:11:52;100170.03;;;19.92;36.12
50484;BME280;36409;52.168;20.878;2023-04-29T13:14:24;100169.42;;;19.86;35.83
50484;BME280;36409;52.168;20.878;2023-04-29T13:16:59;100168.03;;;19.79;36.41
50484;BME280;36409;52.168;20.878;2023-04-29T13:19:32;100169.39;;;19.70;35.83
50484;BME280;36409;52.168;20.878;2023-04-29T13:22:21;100173.23;;;19.49;35.95
50484;BME280;36409;52.168;20.878;2023-04-29T13:24:54;100169.16;;;19.25;35.94
50484;BME280;36409;52.168;20.878;2023-04-29T13:27:28;100173.11;;;19.34;36.27
50484;BME280;36409;52.168;20.878;2023-04-29T13:30:01;100162.73;;;19.47;36.22
50484;BME280;36409;52.168;20.878;2023-04-29T13:32:34;100154.95;;;19.44;36.49
50484;BME280;36409;52.168;20.878;2023-04-29T13:35:19;100156.20;;;19.37;36.52